Time;durP1;ratioP1;P1;durP2;ratioP2;P2;SDS_P1;SDS_P2;PMS_P1;PMS_P2;Temp;Humidity;BMP_temperature;BMP_pressure;BME280_temperature;BME280_humidity;BME280_pressure;Samples;Min_cycle;Max_cycle;Signal;HPM_P1;HPM_P2
2023/04/29 00:02:22;;;;;;;0.60;0.60;;;11.30;99.90;;;;;;5011558;28;20545;-73
2023/04/29 00:04:57;;;;;;;0.40;0.30;;;11.30;99.90;;;;;;5012889;28;20472;-75
2023/04/29 00:07:48;;;;;;;0.33;0.33;;;11.20;99.90;;;;;;5012517;28;20407;-75
2023/04/29 00:10:20;;;;;;;0.43;0.43;;;11.30;99.90;;;;;;5013513;28;20485;-75
2023/04/29 00:12:49;;;;;;;0.47;0.40;;;11.40;99.90;;;;;;5013792;28;20910;-76
2023/04/29 00:15:20;;;;;;;0.45;0.45;;;11.40;99.90;;;;;;5011814;28;20536;-76
2023/04/29 00:18:11;;;;;;;0.40;0.40;;;11.40;99.90;;;;;;5010267;28;20472;-76
2023/04/29 00:20:38;;;;;;;0.43;0.43;;;11.40;99.90;;;;;;5011618;28;20441;-75
2023/04/29 00:23:06;;;;;;;0.30;0.30;;;11.40;99.90;;;;;;5011603;28;20917;-75
2023/04/29 00:25:34;;;;;;;0.43;0.43;;;11.30;99.90;;;;;;5011687;28;20436;-76
2023/04/29 00:28:01;;;;;;;0.45;0.45;;;11.20;99.90;;;;;;5012168;28;20612;-75
2023/04/29 00:30:52;;;;;;;0.63;0.63;;;11.20;99.90;;;;;;5012323;28;20430;-76
2023/04/29 00:33:22;;;;;;;0.40;0.40;;;11.20;99.90;;;;;;5010758;28;21664;-75
2023/04/29 00:35:52;;;;;;;0.65;0.65;;;11.10;99.90;;;;;;5012012;28;20654;-76
2023/04/29 00:38:20;;;;;;;0.35;0.30;;;11.10;99.90;;;;;;5012654;28;20596;-76
2023/04/29 00:41:11;;;;;;;0.40;0.40;;;11.10;99.90;;;;;;5013196;28;20883;-76
2023/04/29 00:43:37;;;;;;;0.45;0.45;;;11.00;99.90;;;;;;5013223;28;20438;-76
2023/04/29 00:46:04;;;;;;;0.40;0.33;;;10.90;99.90;;;;;;5005841;28;20941;-76
2023/04/29 00:48:31;;;;;;;0.40;0.40;;;10.80;99.90;;;;;;5020285;28;20446;-76
2023/04/29 00:50:59;;;;;;;0.30;0.30;;;10.80;99.90;;;;;;5009500;28;20450;-76
2023/04/29 00:53:26;;;;;;;0.45;0.45;;;10.80;99.90;;;;;;5010625;28;20485;-76
2023/04/29 00:55:53;;;;;;;0.57;0.57;;;10.80;99.90;;;;;;5001283;28;20829;-76
2023/04/29 00:58:21;;;;;;;0.40;0.40;;;10.70;99.90;;;;;;5010000;28;20426;-76
2023/04/29 01:00:48;;;;;;;0.40;0.40;;;10.60;99.90;;;;;;5009820;28;20456;-76
2023/04/29 01:03:15;;;;;;;0.80;0.52;;;10.50;99.90;;;;;;5011734;28;20861;-76
2023/04/29 01:05:46;;;;;;;0.35;0.35;;;10.50;99.90;;;;;;5011370;28;20475;-76
2023/04/29 01:08:51;;;;;;;0.50;0.50;;;10.30;99.90;;;;;;5010087;28;20450;-76
2023/04/29 01:11:22;;;;;;;0.50;0.50;;;10.20;99.90;;;;;;5005604;28;20431;-76
2023/04/29 01:13:50;;;;;;;0.30;0.30;;;10.20;99.90;;;;;;5010993;28;20424;-76
2023/04/29 01:16:51;;;;;;;0.30;0.30;;;10.20;99.90;;;;;;5010292;28;20438;-76
2023/04/29 01:19:44;;;;;;;0.80;0.50;;;10.30;99.90;;;;;;5009341;28;20431;-75
2023/04/29 01:22:14;;;;;;;0.40;0.40;;;10.40;99.90;;;;;;5001653;28;20709;-76
2023/04/29 01:24:41;;;;;;;2.20;0.60;;;10.40;99.90;;;;;;5010722;28;20496;-76
2023/04/29 01:27:33;;;;;;;0.40;0.40;;;10.40;99.90;;;;;;5011434;28;20447;-76
2023/04/29 01:30:20;;;;;;;0.70;0.35;;;10.30;99.90;;;;;;5010519;28;20457;-76
2023/04/29 01:33:00;;;;;;;0.50;0.50;;;10.30;99.90;;;;;;5012963;28;20444;-76
2023/04/29 01:35:48;;;;;;;0.40;0.40;;;10.20;99.90;;;;;;5011166;28;20449;-76
2023/04/29 01:38:29;;;;;;;0.32;0.32;;;10.10;99.90;;;;;;5010048;28;20434;-76
2023/04/29 01:41:08;;;;;;;0.60;0.60;;;10.10;99.90;;;;;;5019062;28;20426;-76
2023/04/29 01:43:39;;;;;;;0.57;0.47;;;10.00;99.90;;;;;;5010979;28;20534;-76
2023/04/29 01:46:10;;;;;;;0.50;0.50;;;9.80;99.90;;;;;;5009836;28;20813;-76
2023/04/29 01:48:38;;;;;;;0.50;0.50;;;9.80;99.90;;;;;;5009558;28;20438;-76
2023/04/29 01:51:05;;;;;;;0.60;0.50;;;9.70;99.90;;;;;;5009689;28;20437;-76
2023/04/29 01:53:32;;;;;;;0.70;0.70;;;9.60;99.90;;;;;;5009297;28;21058;-76
2023/04/29 01:55:59;;;;;;;0.40;0.40;;;9.50;99.90;;;;;;5008944;28;20430;-76
2023/04/29 01:58:29;;;;;;;0.97;0.63;;;9.50;99.90;;;;;;5009394;28;20853;-76
2023/04/29 02:00:55;;;;;;;0.73;0.73;;;9.60;99.90;;;;;;5009598;28;20443;-76
2023/04/29 02:03:22;;;;;;;0.40;0.40;;;9.60;99.90;;;;;;5009897;28;20542;-76
2023/04/29 02:05:49;;;;;;;0.50;0.50;;;9.50;99.90;;;;;;5009361;28;20568;-75
2023/04/29 02:08:17;;;;;;;0.50;0.50;;;9.40;99.90;;;;;;5011314;28;20906;-76
2023/04/29 02:10:58;;;;;;;0.68;0.47;;;9.30;99.90;;;;;;5009364;28;20441;-76
2023/04/29 02:13:25;;;;;;;0.63;0.63;;;9.10;99.90;;;;;;5024313;28;20442;-76
2023/04/29 02:15:52;;;;;;;0.60;0.60;;;9.00;99.90;;;;;;5008388;28;20435;-75
2023/04/29 02:18:19;;;;;;;0.40;0.30;;;8.90;99.90;;;;;;4999391;28;20669;-76
2023/04/29 02:20:46;;;;;;;0.60;0.60;;;8.90;99.90;;;;;;5006915;28;21472;-76
2023/04/29 02:23:13;;;;;;;0.50;0.50;;;8.80;99.90;;;;;;5010355;28;20453;-76
2023/04/29 02:25:39;;;;;;;0.60;0.60;;;8.90;99.90;;;;;;5007418;28;20442;-76
2023/04/29 02:28:06;;;;;;;1.15;0.43;;;9.00;99.90;;;;;;5009383;28;20444;-76
2023/04/29 02:30:33;;;;;;;0.50;0.50;;;9.10;99.90;;;;;;5008662;28;20452;-75
2023/04/29 02:33:07;;;;;;;0.43;0.32;;;9.20;99.90;;;;;;5011244;28;21314;-76
2023/04/29 02:35:34;;;;;;;0.43;0.43;;;9.20;99.90;;;;;;5007358;28;20433;-75
2023/04/29 02:38:07;;;;;;;0.45;0.45;;;9.20;99.90;;;;;;5007747;28;20443;-75
2023/04/29 02:40:39;;;;;;;1.10;0.50;;;9.30;99.90;;;;;;5009962;28;20490;-76
2023/04/29 02:43:06;;;;;;;0.50;0.50;;;9.40;99.90;;;;;;5006994;28;20450;-76
2023/04/29 02:45:33;;;;;;;0.20;0.20;;;9.40;99.90;;;;;;5008565;28;21071;-76
2023/04/29 02:47:59;;;;;;;0.45;0.45;;;9.40;99.90;;;;;;5009732;28;20455;-76
2023/04/29 02:50:27;;;;;;;0.40;0.40;;;9.50;99.90;;;;;;5011379;28;20437;-75
2023/04/29 02:52:54;;;;;;;0.32;0.32;;;9.50;99.90;;;;;;5014570;28;20442;-75
2023/04/29 02:55:21;;;;;;;0.40;0.40;;;9.50;99.90;;;;;;5007339;28;20437;-76
2023/04/29 02:57:48;;;;;;;0.50;0.50;;;9.40;99.90;;;;;;5011324;28;20994;-77
2023/04/29 03:00:14;;;;;;;0.20;0.20;;;9.40;99.90;;;;;;5014910;28;20467;-75
2023/04/29 03:02:41;;;;;;;0.30;0.30;;;9.40;99.90;;;;;;5012275;28;20474;-76
2023/04/29 03:05:11;;;;;;;0.75;0.40;;;9.40;99.90;;;;;;5014752;28;20517;-76
2023/04/29 03:07:38;;;;;;;0.45;0.45;;;9.40;99.90;;;;;;5030108;28;20522;-76
2023/04/29 03:10:08;;;;;;;0.35;0.35;;;9.40;99.90;;;;;;5014381;28;20445;-76
2023/04/29 03:12:35;;;;;;;1.10;0.57;;;9.50;99.90;;;;;;5011450;28;20444;-76
2023/04/29 03:15:06;;;;;;;0.47;0.47;;;9.50;99.90;;;;;;5012783;28;20443;-76
2023/04/29 03:17:33;;;;;;;0.55;0.55;;;9.50;99.90;;;;;;5015041;28;20458;-76
2023/04/29 03:20:00;;;;;;;0.35;0.35;;;9.60;99.90;;;;;;5013311;28;20437;-75
2023/04/29 03:22:27;;;;;;;0.40;0.40;;;9.60;99.90;;;;;;5012021;28;20432;-75
2023/04/29 03:24:54;;;;;;;0.35;0.35;;;9.60;99.90;;;;;;5011434;28;20520;-75
2023/04/29 03:27:21;;;;;;;0.40;0.40;;;9.70;99.90;;;;;;5013841;28;20447;-75
2023/04/29 03:29:50;;;;;;;0.52;0.52;;;9.70;99.90;;;;;;5013027;28;20936;-76
2023/04/29 03:32:17;;;;;;;0.50;0.50;;;9.80;99.90;;;;;;5013397;28;20525;-75
2023/04/29 03:34:44;;;;;;;1.10;0.20;;;9.80;99.90;;;;;;5013372;28;20487;-75
2023/04/29 03:37:11;;;;;;;0.22;0.22;;;9.90;99.90;;;;;;5014169;28;20427;-75
2023/04/29 03:39:38;;;;;;;0.40;0.40;;;10.00;99.90;;;;;;5011905;28;20833;-76
2023/04/29 03:42:05;;;;;;;0.20;0.20;;;10.00;99.90;;;;;;5014414;28;20557;-75
2023/04/29 03:44:34;;;;;;;0.38;0.38;;;10.10;99.90;;;;;;5008727;28;20470;-76
2023/04/29 03:47:03;;;;;;;0.20;0.20;;;10.20;99.90;;;;;;5011421;28;20462;-75
2023/04/29 03:49:30;;;;;;;0.20;0.15;;;10.20;99.90;;;;;;5012838;28;20452;-75
2023/04/29 03:51:57;;;;;;;0.20;0.20;;;10.30;99.90;;;;;;5013359;28;20455;-75
2023/04/29 03:54:25;;;;;;;0.30;0.30;;;10.30;99.90;;;;;;5010189;28;20834;-75
2023/04/29 03:56:51;;;;;;;0.38;0.38;;;10.30;99.90;;;;;;5013273;28;20486;-76
2023/04/29 03:59:18;;;;;;;0.23;0.23;;;10.30;99.90;;;;;;5014344;28;20430;-75
2023/04/29 04:01:45;;;;;;;0.30;0.30;;;10.30;99.90;;;;;;5011610;28;20445;-76
2023/04/29 04:04:12;;;;;;;0.30;0.28;;;10.30;99.90;;;;;;5011142;28;20435;-76
2023/04/29 04:06:39;;;;;;;0.15;0.15;;;10.30;99.90;;;;;;5014068;28;20542;-75
2023/04/29 04:09:05;;;;;;;0.52;0.52;;;10.30;99.90;;;;;;5011186;28;20634;-75
2023/04/29 04:11:33;;;;;;;0.50;0.50;;;10.40;99.90;;;;;;5013308;28;20445;-76
2023/04/29 04:14:00;;;;;;;0.17;0.17;;;10.40;99.90;;;;;;5011454;28;20510;-76
2023/04/29 04:16:26;;;;;;;0.40;0.40;;;10.40;99.90;;;;;;5010999;28;20433;-76
2023/04/29 04:18:53;;;;;;;0.30;0.30;;;10.40;99.90;;;;;;5000526;28;20435;-76
2023/04/29 04:21:20;;;;;;;0.70;0.50;;;10.50;99.90;;;;;;5009909;28;20431;-76
2023/04/29 04:23:46;;;;;;;0.30;0.30;;;10.60;99.90;;;;;;5012868;28;20849;-75
2023/04/29 04:26:14;;;;;;;0.33;0.33;;;10.60;99.90;;;;;;5012008;28;20435;-75
2023/04/29 04:28:41;;;;;;;0.57;0.57;;;10.70;99.90;;;;;;5011500;28;20435;-76
2023/04/29 04:31:07;;;;;;;0.30;0.30;;;10.70;99.90;;;;;;5007513;28;20549;-72
2023/04/29 04:33:35;;;;;;;0.70;0.70;;;10.70;99.90;;;;;;5011619;28;20527;-72
2023/04/29 04:36:02;;;;;;;0.50;0.50;;;10.70;99.90;;;;;;5011712;28;20470;-72
2023/04/29 04:38:46;;;;;;;1.15;1.15;;;10.70;99.90;;;;;;5013882;28;20438;-72
2023/04/29 04:41:13;;;;;;;0.82;0.82;;;10.70;99.90;;;;;;5025763;28;20443;-72
2023/04/29 04:43:40;;;;;;;1.30;1.20;;;10.90;99.90;;;;;;5011954;28;20431;-73
2023/04/29 04:46:11;;;;;;;1.50;1.20;;;11.00;99.90;;;;;;5010831;28;20446;-73
2023/04/29 04:48:38;;;;;;;1.05;1.05;;;11.00;99.90;;;;;;5011482;28;20437;-72
2023/04/29 04:51:12;;;;;;;1.13;1.13;;;11.10;99.90;;;;;;5010733;28;20470;-72
2023/04/29 04:53:39;;;;;;;1.83;1.73;;;11.20;99.90;;;;;;5011730;28;20449;-73
2023/04/29 04:56:07;;;;;;;1.67;1.57;;;11.20;99.90;;;;;;5010072;28;20435;-72
2023/04/29 04:58:33;;;;;;;1.60;1.50;;;11.30;99.90;;;;;;5011817;28;20510;-73
2023/04/29 05:01:00;;;;;;;1.55;1.45;;;11.40;99.90;;;;;;5010616;28;20956;-72
2023/04/29 05:03:27;;;;;;;1.25;1.23;;;11.40;99.90;;;;;;5009338;28;20439;-73
2023/04/29 05:05:56;;;;;;;2.22;2.00;;;11.50;99.90;;;;;;5009483;28;20929;-72
2023/04/29 05:08:23;;;;;;;1.63;1.27;;;11.50;99.90;;;;;;5002834;28;20553;-73
2023/04/29 05:10:52;;;;;;;2.00;1.90;;;11.50;99.90;;;;;;5009484;28;21174;-72
2023/04/29 05:13:20;;;;;;;1.70;1.60;;;11.60;99.90;;;;;;5011078;28;20435;-72
2023/04/29 05:15:47;;;;;;;2.35;1.52;;;11.70;99.90;;;;;;5009007;28;20466;-73
2023/04/29 05:18:13;;;;;;;2.83;1.92;;;11.80;99.90;;;;;;5011728;28;20482;-73
2023/04/29 05:20:43;;;;;;;2.00;1.83;;;11.90;99.90;;;;;;5010032;28;20522;-72
2023/04/29 05:23:10;;;;;;;1.52;1.42;;;12.00;99.90;;;;;;5024528;28;20802;-73
2023/04/29 05:25:36;;;;;;;2.60;1.90;;;12.10;99.90;;;;;;5011329;28;20443;-72
2023/04/29 05:28:04;;;;;;;1.67;1.58;;;12.10;99.90;;;;;;5009598;28;20442;-73
2023/04/29 05:30:31;;;;;;;1.63;1.50;;;12.10;99.90;;;;;;5011049;28;20434;-73
2023/04/29 05:32:58;;;;;;;1.48;1.38;;;12.20;99.90;;;;;;5010752;28;20917;-74
2023/04/29 05:35:25;;;;;;;2.05;1.23;;;12.30;99.90;;;;;;5012885;28;20434;-73
2023/04/29 05:37:52;;;;;;;1.17;1.17;;;12.40;99.90;;;;;;5012503;28;20433;-73
2023/04/29 05:40:23;;;;;;;1.92;1.83;;;12.50;99.90;;;;;;5012866;28;20442;-72
2023/04/29 05:42:50;;;;;;;1.85;1.75;;;12.60;99.90;;;;;;5012278;28;20432;-73
2023/04/29 05:45:17;;;;;;;2.38;1.70;;;12.70;99.90;;;;;;5009094;28;20436;-73
2023/04/29 05:47:43;;;;;;;1.67;1.40;;;12.80;99.90;;;;;;5013469;28;20446;-72
2023/04/29 05:50:10;;;;;;;2.80;2.38;;;13.00;99.90;;;;;;5010555;28;20530;-73
2023/04/29 05:52:40;;;;;;;2.33;1.45;;;13.20;99.90;;;;;;5011643;28;20478;-71
2023/04/29 05:55:07;;;;;;;2.05;1.20;;;13.50;99.90;;;;;;5016183;28;20466;-71
2023/04/29 05:57:34;;;;;;;2.25;2.05;;;13.90;99.90;;;;;;5008894;28;20430;-72
2023/04/29 06:00:03;;;;;;;1.67;1.58;;;14.30;99.90;;;;;;5004464;28;20438;-72
2023/04/29 06:02:29;;;;;;;3.00;1.70;;;14.70;99.90;;;;;;5007887;28;21421;-72
2023/04/29 06:04:56;;;;;;;2.35;1.58;;;15.20;99.90;;;;;;5010484;28;20485;-72
2023/04/29 06:07:25;;;;;;;2.42;2.13;;;15.40;99.90;;;;;;5009124;28;20489;-72
2023/04/29 06:09:52;;;;;;;1.90;1.80;;;15.30;99.90;;;;;;5005699;28;20453;-72
2023/04/29 06:12:20;;;;;;;1.60;1.42;;;14.90;99.90;;;;;;5023358;28;21033;-72
2023/04/29 06:14:47;;;;;;;2.35;1.90;;;14.50;99.90;;;;;;5007717;28;20492;-72
2023/04/29 06:17:14;;;;;;;2.25;1.60;;;14.30;99.90;;;;;;5010033;28;20435;-72
2023/04/29 06:19:41;;;;;;;1.65;1.45;;;14.20;99.90;;;;;;5000668;28;20597;-72
2023/04/29 06:22:10;;;;;;;1.58;1.50;;;14.10;99.90;;;;;;5007722;28;20714;-73
2023/04/29 06:24:37;;;;;;;1.25;1.10;;;14.10;99.90;;;;;;4992710;28;20449;-72
2023/04/29 06:27:04;;;;;;;1.00;1.00;;;14.00;99.90;;;;;;5004204;28;20939;-70
2023/04/29 06:29:30;;;;;;;3.40;1.35;;;14.00;99.90;;;;;;5005384;28;20441;-70
2023/04/29 06:31:57;;;;;;;1.52;1.42;;;14.00;99.90;;;;;;5007278;28;20446;-70
2023/04/29 06:34:24;;;;;;;1.67;1.20;;;13.90;99.90;;;;;;5006612;28;20431;-70
2023/04/29 06:36:50;;;;;;;2.33;1.15;;;13.90;99.90;;;;;;5006845;28;20439;-69
2023/04/29 06:39:17;;;;;;;1.40;1.35;;;13.80;99.90;;;;;;5009611;28;20979;-70
2023/04/29 06:41:44;;;;;;;1.73;1.63;;;13.90;99.90;;;;;;5008657;28;20429;-69
2023/04/29 06:44:12;;;;;;;1.47;1.37;;;13.90;99.90;;;;;;5002912;28;20430;-69
2023/04/29 06:46:39;;;;;;;0.68;0.68;;;14.00;99.90;;;;;;5007329;28;20447;-73
2023/04/29 06:49:07;;;;;;;0.68;0.68;;;13.80;99.90;;;;;;5005303;28;20917;-73
2023/04/29 06:51:35;;;;;;;0.93;0.93;;;13.70;99.90;;;;;;5007813;28;20449;-72
2023/04/29 06:54:03;;;;;;;0.90;0.90;;;13.70;99.90;;;;;;5004856;28;20490;-72
2023/04/29 06:56:30;;;;;;;0.93;0.93;;;13.70;99.90;;;;;;5007961;28;20473;-73
2023/04/29 06:58:57;;;;;;;1.23;0.85;;;13.70;99.90;;;;;;5006591;28;20537;-72
2023/04/29 07:01:23;;;;;;;0.65;0.65;;;13.80;99.90;;;;;;5003327;28;20537;-73
2023/04/29 07:03:50;;;;;;;1.05;1.05;;;14.00;99.90;;;;;;5007376;28;22068;-73
2023/04/29 07:06:20;;;;;;;0.73;0.60;;;14.10;99.90;;;;;;5005746;28;20484;-73
2023/04/29 07:08:46;;;;;;;0.90;0.90;;;14.30;99.90;;;;;;5000635;28;20434;-73
2023/04/29 07:11:13;;;;;;;0.80;0.75;;;14.40;99.90;;;;;;5000543;28;20454;-73
2023/04/29 07:13:40;;;;;;;1.00;0.98;;;14.50;99.90;;;;;;5003512;28;20443;-73
2023/04/29 07:16:15;;;;;;;1.88;1.20;;;14.70;99.90;;;;;;5006180;28;20501;-73
2023/04/29 07:18:43;;;;;;;1.70;1.20;;;14.90;99.90;;;;;;5004934;28;20627;-72
2023/04/29 07:21:09;;;;;;;1.25;1.00;;;15.10;99.90;;;;;;5004672;28;20528;-72
2023/04/29 07:23:36;;;;;;;1.05;0.95;;;15.30;99.90;;;;;;5006257;28;20492;-71
2023/04/29 07:26:14;;;;;;;0.82;0.68;;;15.30;99.90;;;;;;5004666;28;20779;-71
2023/04/29 07:28:42;;;;;;;0.67;0.67;;;15.20;99.90;;;;;;5008295;28;20435;-72
2023/04/29 07:31:10;;;;;;;1.88;1.33;;;15.20;99.90;;;;;;5006965;28;20446;-72
2023/04/29 07:33:37;;;;;;;1.77;1.67;;;15.30;99.90;;;;;;5006118;28;20447;-72
2023/04/29 07:36:06;;;;;;;1.38;1.02;;;15.20;99.90;;;;;;5008030;28;20442;-72
2023/04/29 07:38:33;;;;;;;1.13;1.10;;;15.20;99.90;;;;;;5010236;28;20468;-72
2023/04/29 07:41:00;;;;;;;0.93;0.82;;;15.20;99.90;;;;;;5010102;28;20896;-72
2023/04/29 07:43:27;;;;;;;0.88;0.85;;;15.10;99.90;;;;;;5009594;28;20502;-78
2023/04/29 07:45:55;;;;;;;1.60;0.80;;;15.00;99.90;;;;;;5008547;28;20442;-75
2023/04/29 07:48:22;;;;;;;1.65;1.45;;;15.00;99.90;;;;;;5008813;28;20481;-76
2023/04/29 07:50:49;;;;;;;1.80;1.15;;;15.10;99.90;;;;;;5008381;28;20446;-70
2023/04/29 07:53:17;;;;;;;1.13;1.00;;;15.10;99.90;;;;;;5007773;28;20446;-72
2023/04/29 07:55:46;;;;;;;1.48;1.38;;;14.80;99.90;;;;;;5019389;28;20733;-72
2023/04/29 07:58:13;;;;;;;1.30;1.20;;;14.80;99.90;;;;;;5008988;28;20439;-73
2023/04/29 08:00:40;;;;;;;1.45;1.35;;;14.80;99.90;;;;;;5006891;28;20531;-72
2023/04/29 08:03:07;;;;;;;2.47;1.27;;;14.70;99.90;;;;;;5009253;28;20442;-71
2023/04/29 08:05:35;;;;;;;0.90;0.90;;;14.60;99.90;;;;;;5007908;28;20431;-71
2023/04/29 08:08:02;;;;;;;1.23;1.13;;;14.50;99.90;;;;;;5006163;28;20439;-75
2023/04/29 08:10:29;;;;;;;1.90;1.70;;;14.50;99.90;;;;;;5005300;28;20492;-72
2023/04/29 08:12:58;;;;;;;1.90;1.30;;;14.50;99.90;;;;;;5007697;28;21543;-72
2023/04/29 08:15:25;;;;;;;1.00;1.00;;;14.60;99.90;;;;;;5010928;28;20439;-71
2023/04/29 08:17:51;;;;;;;1.48;1.38;;;14.50;99.90;;;;;;5008294;28;20488;-72
2023/04/29 08:20:19;;;;;;;1.60;1.02;;;14.40;99.90;;;;;;5008174;28;21733;-74
2023/04/29 08:22:46;;;;;;;1.17;0.98;;;14.30;99.90;;;;;;5006192;28;20732;-71
2023/04/29 08:25:13;;;;;;;1.50;1.40;;;14.20;99.90;;;;;;5007599;28;22745;-71
2023/04/29 08:27:42;;;;;;;1.20;1.20;;;14.00;99.90;;;;;;5008647;28;20978;-71
2023/04/29 08:30:09;;;;;;;1.02;1.02;;;14.00;99.90;;;;;;5010222;28;20423;-75
2023/04/29 08:32:36;;;;;;;1.10;1.10;;;14.00;99.90;;;;;;5007877;28;20934;-75
2023/04/29 08:35:03;;;;;;;1.83;1.63;;;14.00;99.90;;;;;;5009825;28;20566;-76
2023/04/29 08:37:29;;;;;;;2.03;1.25;;;14.00;99.90;;;;;;5009151;28;20578;-75
2023/04/29 08:39:59;;;;;;;0.77;0.77;;;14.00;99.90;;;;;;5005744;28;20438;-73
2023/04/29 08:42:35;;;;;;;1.20;1.20;;;13.90;99.90;;;;;;5007979;28;20435;-73
2023/04/29 08:45:05;;;;;;;1.40;1.30;;;13.90;99.90;;;;;;5021208;28;20819;-79
2023/04/29 08:47:33;;;;;;;1.47;1.37;;;13.90;99.90;;;;;;5006155;28;20996;-75
2023/04/29 08:50:04;;;;;;;1.20;1.20;;;13.90;99.90;;;;;;5007065;28;20439;-75
2023/04/29 08:52:31;;;;;;;1.10;1.10;;;13.80;99.90;;;;;;5008073;28;20522;-76
2023/04/29 08:55:01;;;;;;;2.10;1.40;;;13.80;99.90;;;;;;5008440;28;20818;-74
2023/04/29 08:57:30;;;;;;;1.55;1.45;;;13.80;99.90;;;;;;5006742;28;20435;-74
2023/04/29 09:00:00;;;;;;;1.60;1.20;;;13.70;99.90;;;;;;5007409;28;20442;-75
2023/04/29 09:02:27;;;;;;;1.35;1.27;;;13.70;99.90;;;;;;5009046;28;20440;-75
2023/04/29 09:05:03;;;;;;;1.90;1.63;;;13.70;99.90;;;;;;5004889;28;20427;-75
2023/04/29 09:07:31;;;;;;;1.70;1.60;;;13.70;99.90;;;;;;5010062;28;20979;-75
2023/04/29 09:10:03;;;;;;;0.90;0.90;;;13.80;99.90;;;;;;5007995;28;20554;-75
2023/04/29 09:12:30;;;;;;;0.90;0.90;;;13.90;99.90;;;;;;5007843;28;20680;-75
2023/04/29 09:15:00;;;;;;;1.40;1.30;;;14.10;99.90;;;;;;5010227;28;20430;-75
2023/04/29 09:17:41;;;;;;;1.60;1.48;;;14.40;99.90;;;;;;5008787;28;20465;-75
2023/04/29 09:20:20;;;;;;;0.88;0.88;;;14.60;99.90;;;;;;5022456;28;20525;-75
2023/04/29 09:22:48;;;;;;;1.35;1.25;;;14.60;99.90;;;;;;5006828;28;20427;-76
2023/04/29 09:25:16;;;;;;;1.70;1.00;;;14.50;99.90;;;;;;5023284;28;20431;-75
2023/04/29 09:27:46;;;;;;;1.13;1.02;;;14.50;99.90;;;;;;5002981;28;20917;-76
2023/04/29 09:30:15;;;;;;;1.27;1.17;;;14.40;99.90;;;;;;5008959;28;20439;-75
2023/04/29 09:32:43;;;;;;;1.10;1.10;;;14.40;99.90;;;;;;5020041;28;20443;-75
2023/04/29 09:35:27;;;;;;;0.70;0.70;;;14.50;99.90;;;;;;5009164;28;20571;-74
2023/04/29 09:38:11;;;;;;;0.80;0.80;;;14.30;99.90;;;;;;5027231;28;20710;-74
2023/04/29 09:40:39;;;;;;;1.20;1.10;;;14.10;99.90;;;;;;5011976;28;20527;-76
2023/04/29 09:43:24;;;;;;;1.23;1.23;;;14.10;99.90;;;;;;5007727;28;20462;-75
2023/04/29 09:45:54;;;;;;;0.60;0.60;;;14.10;99.90;;;;;;5008534;28;20444;-75
2023/04/29 09:48:32;;;;;;;0.50;0.50;;;14.10;99.90;;;;;;5011824;28;20485;-75
2023/04/29 09:51:01;;;;;;;0.75;0.60;;;14.10;99.90;;;;;;5011382;28;20440;-75
2023/04/29 09:53:32;;;;;;;1.33;1.25;;;14.10;99.90;;;;;;5012429;28;20453;-76
2023/04/29 09:56:01;;;;;;;1.50;1.40;;;14.10;99.90;;;;;;5011532;28;20438;-75
2023/04/29 09:58:37;;;;;;;1.05;1.05;;;14.00;99.90;;;;;;5005238;28;20438;-75
2023/04/29 10:01:04;;;;;;;1.73;1.50;;;14.10;99.90;;;;;;5010606;28;20470;-76
2023/04/29 10:03:36;;;;;;;1.67;1.40;;;14.10;99.90;;;;;;5013976;28;20446;-75
2023/04/29 10:06:05;;;;;;;1.45;1.23;;;14.10;99.90;;;;;;5014619;28;20507;-76
2023/04/29 10:08:33;;;;;;;1.57;1.47;;;14.10;99.90;;;;;;5012649;28;20448;-75
2023/04/29 10:11:02;;;;;;;1.40;1.10;;;14.00;99.90;;;;;;5011827;28;20442;-75
2023/04/29 10:13:29;;;;;;;1.40;1.23;;;14.10;99.90;;;;;;5013456;28;20440;-75
2023/04/29 10:16:14;;;;;;;1.00;1.00;;;14.10;99.90;;;;;;5010658;28;20496;-74
2023/04/29 10:18:54;;;;;;;1.42;1.33;;;14.10;99.90;;;;;;5013127;28;20491;-75
2023/04/29 10:21:29;;;;;;;1.00;1.00;;;14.30;99.90;;;;;;5016472;28;20457;-75
2023/04/29 10:23:58;;;;;;;0.97;0.97;;;14.40;99.90;;;;;;5012295;28;20476;-74
2023/04/29 10:26:27;;;;;;;1.00;1.00;;;14.40;99.90;;;;;;5013561;28;20505;-75
2023/04/29 10:28:56;;;;;;;1.15;0.90;;;14.40;99.90;;;;;;5003169;28;20439;-75
2023/04/29 10:31:26;;;;;;;1.20;1.05;;;14.40;99.90;;;;;;5010336;28;20446;-75
2023/04/29 10:33:57;;;;;;;1.02;1.02;;;14.30;99.90;;;;;;5013667;28;20514;-75
2023/04/29 10:36:30;;;;;;;1.00;1.00;;;14.30;99.90;;;;;;5011418;28;20447;-75
2023/04/29 10:38:59;;;;;;;0.77;0.77;;;14.30;99.90;;;;;;5010951;28;20850;-76
2023/04/29 10:41:32;;;;;;;0.60;0.57;;;14.30;99.90;;;;;;5011460;28;20435;-75
2023/04/29 10:43:59;;;;;;;0.80;0.80;;;14.30;99.90;;;;;;5024287;28;20439;-76
2023/04/29 10:46:29;;;;;;;1.20;0.60;;;14.20;99.90;;;;;;5008903;28;20426;-76
2023/04/29 10:49:05;;;;;;;1.17;1.08;;;14.30;99.90;;;;;;5010218;28;20809;-75
2023/04/29 10:51:40;;;;;;;0.43;0.43;;;14.30;99.90;;;;;;5012420;28;20561;-75
2023/04/29 10:54:24;;;;;;;1.08;1.08;;;14.20;99.90;;;;;;5009746;28;20431;-75
2023/04/29 10:56:53;;;;;;;0.63;0.63;;;14.10;99.90;;;;;;5012294;28;20431;-75
2023/04/29 10:59:40;;;;;;;0.95;0.85;;;14.10;99.90;;;;;;5012706;28;20430;-74
2023/04/29 11:02:09;;;;;;;0.83;0.83;;;14.20;99.90;;;;;;5014561;28;20477;-74
2023/04/29 11:05:09;;;;;;;0.50;0.50;;;14.10;99.90;;;;;;5015424;28;20602;-75
2023/04/29 11:07:40;;;;;;;1.05;0.88;;;13.90;99.90;;;;;;5014984;28;20459;-75
2023/04/29 11:10:13;;;;;;;0.75;0.75;;;13.80;99.90;;;;;;5017365;28;20803;-75
2023/04/29 11:12:42;;;;;;;0.43;0.43;;;13.60;99.90;;;;;;5013617;28;20938;-75
2023/04/29 11:15:10;;;;;;;0.80;0.80;;;13.50;99.90;;;;;;5015268;28;20423;-75
2023/04/29 11:17:37;;;;;;;0.85;0.85;;;13.70;99.90;;;;;;5008401;28;20438;-75
2023/04/29 11:20:09;;;;;;;0.83;0.80;;;13.80;99.90;;;;;;5013152;28;20444;-74
2023/04/29 11:22:38;;;;;;;0.75;0.75;;;13.90;99.90;;;;;;5005558;28;20513;-74
2023/04/29 11:25:06;;;;;;;0.60;0.60;;;14.00;99.90;;;;;;5011807;28;20841;-74
2023/04/29 11:27:38;;;;;;;0.60;0.60;;;14.10;99.90;;;;;;5008667;28;20801;-74
2023/04/29 11:30:06;;;;;;;0.65;0.65;;;14.30;99.90;;;;;;5012397;28;20758;-74
2023/04/29 11:32:39;;;;;;;0.50;0.50;;;14.60;99.90;;;;;;5024725;28;20439;-74
2023/04/29 11:35:08;;;;;;;0.53;0.53;;;14.80;99.90;;;;;;5006779;28;20522;-74
2023/04/29 11:37:38;;;;;;;0.57;0.57;;;15.10;99.90;;;;;;5014502;28;20595;-74
2023/04/29 11:40:06;;;;;;;1.05;0.90;;;15.50;99.90;;;;;;5010715;28;20439;-74
2023/04/29 11:42:35;;;;;;;0.88;0.70;;;15.90;99.90;;;;;;5015823;28;20435;-74
2023/04/29 11:45:03;;;;;;;0.88;0.82;;;16.50;99.90;;;;;;5015426;28;20438;-75
2023/04/29 11:47:31;;;;;;;0.70;0.60;;;17.20;99.90;;;;;;5013677;28;20435;-75
2023/04/29 11:50:07;;;;;;;0.70;0.70;;;18.00;99.90;;;;;;5015647;28;20816;-77
2023/04/29 11:52:36;;;;;;;0.77;0.77;;;18.30;99.90;;;;;;5012184;28;20906;-75
2023/04/29 11:55:04;;;;;;;0.40;0.40;;;18.30;99.90;;;;;;5026692;28;20439;-75
2023/04/29 11:57:31;;;;;;;0.80;0.73;;;18.30;99.90;;;;;;5014883;28;20925;-76
2023/04/29 11:59:58;;;;;;;0.50;0.50;;;18.30;99.90;;;;;;5013232;28;20527;-75
2023/04/29 12:02:33;;;;;;;0.50;0.50;;;18.30;99.90;;;;;;5011153;28;20569;-75
2023/04/29 12:05:06;;;;;;;1.40;0.60;;;18.50;99.90;;;;;;5010933;28;20442;-75
2023/04/29 12:07:35;;;;;;;0.40;0.40;;;19.10;99.90;;;;;;5013533;28;20433;-75
2023/04/29 12:10:02;;;;;;;0.43;0.43;;;19.50;99.90;;;;;;5012359;28;20498;-76
2023/04/29 12:12:33;;;;;;;0.57;0.57;;;20.20;99.90;;;;;;5014669;28;20496;-74
2023/04/29 12:15:02;;;;;;;0.50;0.50;;;20.90;99.90;;;;;;5014138;28;20984;-75
2023/04/29 12:17:29;;;;;;;1.10;0.88;;;21.10;99.90;;;;;;5012413;28;20550;-74
2023/04/29 12:19:56;;;;;;;0.50;0.50;;;20.90;99.90;;;;;;5011273;28;20733;-74
2023/04/29 12:22:33;;;;;;;0.45;0.45;;;20.60;99.90;;;;;;5013955;28;20482;-74
2023/04/29 12:25:04;;;;;;;0.50;0.50;;;20.70;99.90;;;;;;5010228;28;22608;-74
2023/04/29 12:27:33;;;;;;;0.70;0.70;;;20.90;99.90;;;;;;5014950;28;20454;-76
2023/04/29 12:30:24;;;;;;;0.68;0.63;;;21.30;99.90;;;;;;5013991;28;20426;-76
2023/04/29 12:33:27;;;;;;;0.60;0.60;;;21.10;99.90;;;;;;5012133;28;20478;-76
2023/04/29 12:35:57;;;;;;;0.52;0.52;;;21.50;99.90;;;;;;5011958;28;20523;-74
2023/04/29 12:38:28;;;;;;;0.65;0.65;;;21.90;99.90;;;;;;5012381;28;20799;-75
2023/04/29 12:40:58;;;;;;;0.73;0.68;;;21.80;98.90;;;;;;5012161;28;20427;-76
2023/04/29 12:43:28;;;;;;;0.82;0.60;;;21.30;98.70;;;;;;5012478;28;20560;-74
2023/04/29 12:46:08;;;;;;;0.55;0.52;;;20.80;98.40;;;;;;5015049;28;20484;-75
2023/04/29 12:48:40;;;;;;;0.43;0.43;;;20.30;98.40;;;;;;5012830;28;20517;-74
2023/04/29 12:51:11;;;;;;;0.73;0.60;;;19.70;98.60;;;;;;5011483;28;20445;-76
2023/04/29 12:53:38;;;;;;;1.55;0.77;;;19.50;99.10;;;;;;5010861;28;20427;-75
2023/04/29 12:56:13;;;;;;;0.70;0.70;;;19.30;99.30;;;;;;5011808;28;20442;-74
2023/04/29 12:58:40;;;;;;;0.60;0.60;;;19.20;99.90;;;;;;5012229;28;20977;-75
2023/04/29 13:01:09;;;;;;;0.60;0.60;;;19.10;99.90;;;;;;5011289;28;20497;-74
2023/04/29 13:03:37;;;;;;;0.83;0.83;;;19.00;99.90;;;;;;5012682;28;20451;-75